Time;durP1;ratioP1;P1;durP2;ratioP2;P2;SDS_P1;SDS_P2;PMS_P1;PMS_P2;Temp;Humidity;BMP_temperature;BMP_pressure;BME280_temperature;BME280_humidity;BME280_pressure;Samples;Min_cycle;Max_cycle;Signal;HPM_P1;HPM_P2
2022/04/02 00:00:17;;;;;;;4.38;2.03;;;0.40;99.90;;;;;;5056501;28;20046;-81
2022/04/02 00:02:43;;;;;;;3.85;2.00;;;0.40;99.90;;;;;;5055766;28;20469;-81
2022/04/02 00:05:10;;;;;;;7.13;2.55;;;0.30;99.90;;;;;;5055083;28;20055;-81
2022/04/02 00:07:36;;;;;;;3.90;2.03;;;0.20;99.90;;;;;;5055538;28;20083;-82
2022/04/02 00:10:03;;;;;;;5.88;2.13;;;0.10;99.90;;;;;;5070804;28;20064;-81
2022/04/02 00:12:28;;;;;;;5.47;2.33;;;0.10;99.90;;;;;;5056450;28;20472;-82
2022/04/02 00:14:54;;;;;;;8.18;2.45;;;0.00;99.90;;;;;;5055286;28;20041;-81
2022/04/02 00:17:20;;;;;;;11.23;4.05;;;0.10;99.90;;;;;;5056795;28;20049;-82
2022/04/02 00:19:46;;;;;;;6.55;2.60;;;0.10;99.90;;;;;;5078944;28;20032;-82
2022/04/02 00:22:12;;;;;;;8.23;3.30;;;0.00;99.90;;;;;;5066025;28;20124;-82
2022/04/02 00:24:38;;;;;;;6.70;3.10;;;0.00;99.90;;;;;;5058775;28;20045;-82
2022/04/02 00:27:03;;;;;;;5.75;2.30;;;-0.10;99.90;;;;;;5041083;28;20117;-82
2022/04/02 00:29:29;;;;;;;18.00;3.28;;;-0.20;99.90;;;;;;5058244;28;20080;-82
2022/04/02 00:31:55;;;;;;;6.30;3.47;;;-0.10;99.90;;;;;;5058457;28;20037;-82
2022/04/02 00:34:21;;;;;;;6.93;2.10;;;-0.10;99.90;;;;;;5058324;28;20076;-82
2022/04/02 00:36:46;;;;;;;6.47;2.40;;;-0.20;99.90;;;;;;5058873;28;20127;-82
2022/04/02 00:39:12;;;;;;;7.60;2.97;;;-0.30;99.90;;;;;;5058095;28;20083;-82
2022/04/02 00:41:38;;;;;;;5.28;2.05;;;-0.30;99.90;;;;;;5073744;28;20073;-82
2022/04/02 00:44:17;;;;;;;4.45;2.40;;;-0.60;99.90;;;;;;5057106;28;20048;-82
2022/04/02 00:46:43;;;;;;;5.40;2.13;;;-0.90;99.90;;;;;;5073531;28;20121;-82
2022/04/02 00:49:11;;;;;;;6.88;2.50;;;-1.00;99.90;;;;;;5072598;28;20057;-82
2022/04/02 00:51:41;;;;;;;5.70;2.35;;;-1.00;99.90;;;;;;5049827;28;20040;-82
2022/04/02 00:54:13;;;;;;;8.57;3.03;;;-1.10;99.90;;;;;;5076223;28;20045;-82
2022/04/02 00:56:40;;;;;;;6.88;2.88;;;-1.10;99.90;;;;;;5057670;28;20116;-82
2022/04/02 00:59:06;;;;;;;5.05;2.38;;;-1.10;99.90;;;;;;5057256;28;20041;-82
2022/04/02 01:01:32;;;;;;;6.90;2.58;;;-1.10;99.90;;;;;;5072776;28;20059;-82
2022/04/02 01:03:59;;;;;;;7.18;2.88;;;-1.00;99.90;;;;;;5055761;28;20132;-82
2022/04/02 01:06:27;;;;;;;5.63;2.63;;;-1.00;99.90;;;;;;5057078;28;20491;-81
2022/04/02 01:08:53;;;;;;;7.45;2.90;;;-0.90;99.90;;;;;;5057344;28;20091;-81
2022/04/02 01:11:19;;;;;;;10.95;4.20;;;-0.70;99.90;;;;;;5059037;28;20041;-82
2022/04/02 01:13:44;;;;;;;7.60;2.80;;;-0.80;99.90;;;;;;5038806;28;20049;-82
2022/04/02 01:16:13;;;;;;;5.63;2.80;;;-1.00;99.90;;;;;;5056798;28;20064;-82
2022/04/02 01:18:38;;;;;;;8.48;2.63;;;-1.20;99.90;;;;;;5056714;28;20060;-82
2022/04/02 01:21:04;;;;;;;6.05;2.80;;;-1.30;99.90;;;;;;5056327;28;20073;-82
2022/04/02 01:23:30;;;;;;;6.72;2.78;;;-1.40;99.90;;;;;;5056769;28;20084;-81
2022/04/02 01:26:00;;;;;;;8.75;2.53;;;-1.40;99.90;;;;;;5055908;28;20154;-82
2022/04/02 01:28:33;;;;;;;10.43;3.55;;;-1.30;99.90;;;;;;5055297;28;20080;-82
2022/04/02 01:31:06;;;;;;;6.03;2.33;;;-1.10;99.90;;;;;;5070307;28;20048;-82
2022/04/02 01:33:32;;;;;;;7.43;3.03;;;-1.00;99.90;;;;;;5071155;28;20060;-82
2022/04/02 01:36:02;;;;;;;7.07;3.10;;;-1.10;99.90;;;;;;5056216;28;20041;-82
2022/04/02 01:38:28;;;;;;;4.43;2.50;;;-1.20;99.90;;;;;;5055615;28;20049;-82
2022/04/02 01:40:54;;;;;;;6.97;2.70;;;-1.00;99.90;;;;;;5042877;28;20102;-82
2022/04/02 01:43:20;;;;;;;10.18;3.28;;;-0.90;99.90;;;;;;5120512;22;20152;-80
2022/04/02 01:45:46;;;;;;;11.23;3.00;;;-0.80;99.90;;;;;;5017934;28;20238;-80
2022/04/02 01:48:11;;;;;;;9.07;3.10;;;-0.70;99.90;;;;;;5017339;28;20056;-81
2022/04/02 01:50:37;;;;;;;9.48;2.75;;;-0.80;99.90;;;;;;5051024;28;20145;-80
2022/04/02 01:53:03;;;;;;;11.30;2.72;;;-0.80;99.90;;;;;;5055063;28;20044;-80
2022/04/02 01:55:28;;;;;;;6.43;2.75;;;-0.80;99.90;;;;;;5054576;28;20045;-80
2022/04/02 01:57:54;;;;;;;5.72;2.40;;;-0.80;99.90;;;;;;5020346;28;20045;-81
2022/04/02 02:00:21;;;;;;;8.63;3.30;;;-0.70;99.90;;;;;;5054344;28;20056;-80
2022/04/02 02:02:47;;;;;;;5.55;2.83;;;-0.60;99.90;;;;;;5050467;28;20057;-80
2022/04/02 02:05:13;;;;;;;7.80;2.50;;;-0.60;99.90;;;;;;5036253;28;20041;-81
2022/04/02 02:07:38;;;;;;;5.57;2.70;;;-0.70;99.90;;;;;;5054514;28;20044;-80
2022/04/02 02:10:04;;;;;;;8.80;2.88;;;-0.70;99.90;;;;;;5054418;28;20356;-80
2022/04/02 02:12:30;;;;;;;5.80;2.70;;;-0.80;99.90;;;;;;5036821;28;20387;-80
2022/04/02 02:14:56;;;;;;;5.80;2.95;;;-0.60;99.90;;;;;;5016682;28;20611;-80
2022/04/02 02:17:23;;;;;;;11.27;2.70;;;-0.60;99.90;;;;;;5023802;28;20040;-80
2022/04/02 02:19:48;;;;;;;7.47;2.95;;;-0.40;99.90;;;;;;5036423;28;20055;-80
2022/04/02 02:22:14;;;;;;;7.43;3.95;;;-0.80;99.90;;;;;;5036526;28;20097;-80
2022/04/02 02:24:39;;;;;;;8.23;3.38;;;-0.60;99.90;;;;;;5054617;28;20435;-80
2022/04/02 02:27:06;;;;;;;5.05;2.83;;;-0.40;99.90;;;;;;5054313;28;20518;-80
2022/04/02 02:29:32;;;;;;;6.55;3.22;;;-0.50;99.90;;;;;;5047828;28;20081;-81
2022/04/02 02:31:57;;;;;;;7.93;3.40;;;-0.50;99.90;;;;;;5047169;28;20073;-80
2022/04/02 02:37:08;;;;;;;5.25;2.85;;;-0.60;99.90;;;;;;5054357;28;20049;-80
2022/04/02 02:39:34;;;;;;;8.13;3.17;;;-0.70;99.90;;;;;;5053101;28;20116;-80
2022/04/02 02:41:59;;;;;;;9.27;3.03;;;-0.60;99.90;;;;;;5040033;28;20179;-80
2022/04/02 02:44:25;;;;;;;8.15;2.83;;;-0.60;99.90;;;;;;5030286;28;20068;-80
2022/04/02 02:46:50;;;;;;;5.20;2.20;;;-0.50;99.90;;;;;;4996622;28;20050;-81
2022/04/02 02:49:16;;;;;;;7.15;2.38;;;-0.70;99.90;;;;;;5014061;28;20100;-81
2022/04/02 02:51:41;;;;;;;6.45;3.35;;;-0.70;99.90;;;;;;5013797;28;20076;-81
2022/04/02 02:54:07;;;;;;;5.72;2.15;;;-0.60;99.90;;;;;;5013213;28;20038;-80
2022/04/02 02:56:32;;;;;;;10.52;2.97;;;-0.40;99.90;;;;;;5014182;28;20038;-81
2022/04/02 02:58:58;;;;;;;8.10;2.35;;;-0.30;99.90;;;;;;4996420;28;20061;-81
2022/04/02 03:01:24;;;;;;;6.53;1.77;;;-0.30;99.90;;;;;;5022344;28;20064;-81
2022/04/02 03:03:49;;;;;;;8.55;2.45;;;-0.30;99.90;;;;;;5034354;28;20446;-81
2022/04/02 03:06:15;;;;;;;5.25;2.38;;;-0.30;99.90;;;;;;5033875;28;20037;-81
2022/04/02 03:08:40;;;;;;;6.05;2.13;;;-0.40;99.90;;;;;;5033770;28;20045;-81
2022/04/02 03:11:06;;;;;;;11.95;4.85;;;-0.30;99.90;;;;;;5027243;28;20042;-81
2022/04/02 03:13:32;;;;;;;8.65;3.67;;;-0.20;99.90;;;;;;5013818;28;20117;-81
2022/04/02 03:15:58;;;;;;;8.82;3.20;;;-0.20;99.90;;;;;;4996215;28;20496;-80
2022/04/02 03:18:23;;;;;;;5.65;2.03;;;-0.10;99.90;;;;;;5013919;28;20515;-81
2022/04/02 03:20:49;;;;;;;8.60;1.98;;;0.00;99.90;;;;;;5013425;28;20053;-81
2022/04/02 03:23:15;;;;;;;11.32;2.65;;;0.00;99.90;;;;;;5018441;28;20034;-81
2022/04/02 03:25:40;;;;;;;7.32;2.80;;;-0.10;99.90;;;;;;5016037;28;20049;-81
2022/04/02 03:28:06;;;;;;;13.50;3.10;;;-0.10;99.90;;;;;;5033347;28;20041;-80
2022/04/02 03:30:32;;;;;;;8.30;2.75;;;-0.20;99.90;;;;;;5032718;28;20424;-81
2022/04/02 03:32:58;;;;;;;8.07;3.10;;;-0.20;99.90;;;;;;5013017;28;20500;-80
2022/04/02 03:35:25;;;;;;;4.75;2.08;;;-0.20;99.90;;;;;;5017593;28;20050;-81
2022/04/02 03:37:52;;;;;;;7.72;2.33;;;-0.20;99.90;;;;;;5014210;28;20050;-81
2022/04/02 03:40:21;;;;;;;10.50;2.90;;;-0.20;99.90;;;;;;5013718;28;20477;-81
2022/04/02 03:42:47;;;;;;;7.22;2.72;;;-0.20;99.90;;;;;;5011837;28;20106;-80
2022/04/02 03:45:15;;;;;;;11.23;2.55;;;-0.10;99.90;;;;;;5027562;28;20459;-81
2022/04/02 03:47:41;;;;;;;7.20;2.38;;;-0.20;99.90;;;;;;5033116;28;20408;-81
2022/04/02 03:50:07;;;;;;;10.50;3.92;;;-0.20;99.90;;;;;;5031684;28;20077;-81
2022/04/02 03:52:34;;;;;;;6.47;2.35;;;-0.20;99.90;;;;;;5036330;28;20038;-81
2022/04/02 03:54:59;;;;;;;7.55;3.10;;;-0.20;99.90;;;;;;5025357;28;20124;-81
2022/04/02 03:57:25;;;;;;;18.60;4.43;;;-0.30;99.90;;;;;;5017707;28;20120;-81
2022/04/02 03:59:51;;;;;;;6.78;2.30;;;-0.40;99.90;;;;;;5030475;28;20049;-81
2022/04/02 04:02:17;;;;;;;6.43;2.10;;;-0.50;99.90;;;;;;5037266;28;20056;-81
2022/04/02 04:04:43;;;;;;;6.18;2.30;;;-0.60;99.90;;;;;;5036161;28;20297;-81
2022/04/02 04:07:09;;;;;;;5.57;2.17;;;-0.40;99.90;;;;;;5037077;28;20037;-81
2022/04/02 04:09:36;;;;;;;7.82;2.55;;;-0.30;99.90;;;;;;5036906;28;20496;-81
2022/04/02 04:12:02;;;;;;;6.40;3.03;;;-0.30;99.90;;;;;;5035966;28;20056;-81
2022/04/02 04:14:27;;;;;;;4.95;2.15;;;-0.30;99.90;;;;;;5036830;28;20037;-81
2022/04/02 04:16:54;;;;;;;7.28;2.60;;;-0.20;99.90;;;;;;5036952;28;20593;-81
2022/04/02 04:19:20;;;;;;;14.50;3.72;;;-0.10;99.90;;;;;;5036503;28;20042;-81
2022/04/02 04:21:46;;;;;;;7.43;2.00;;;0.00;99.90;;;;;;5031085;28;20076;-81
2022/04/02 04:24:13;;;;;;;10.98;3.17;;;0.00;99.90;;;;;;5016692;28;20050;-81
2022/04/02 04:26:38;;;;;;;5.47;2.05;;;0.00;99.90;;;;;;5016952;28;20052;-81
2022/04/02 04:29:04;;;;;;;9.55;3.20;;;0.00;99.90;;;;;;5016677;28;20627;-81
2022/04/02 04:31:34;;;;;;;8.27;2.53;;;0.00;99.90;;;;;;5019468;28;20388;-81
2022/04/02 04:34:00;;;;;;;7.22;2.35;;;-0.10;99.90;;;;;;5035168;28;20049;-81
2022/04/02 04:36:25;;;;;;;10.43;2.97;;;0.00;99.90;;;;;;5036365;28;20118;-81
2022/04/02 04:38:51;;;;;;;5.72;2.42;;;-0.10;99.90;;;;;;5036179;28;20542;-81
2022/04/02 04:41:18;;;;;;;5.75;2.17;;;0.00;99.90;;;;;;5018615;28;20048;-81
2022/04/02 04:43:46;;;;;;;5.68;2.03;;;-0.10;99.90;;;;;;5036263;28;20049;-81
2022/04/02 04:46:12;;;;;;;5.18;2.28;;;0.00;99.90;;;;;;5036256;28;20045;-81
2022/04/02 04:48:37;;;;;;;8.13;2.72;;;0.00;99.90;;;;;;5036444;28;20048;-81
2022/04/02 04:51:04;;;;;;;9.07;3.17;;;0.00;99.90;;;;;;5036126;28;20041;-81
2022/04/02 04:53:29;;;;;;;7.32;2.53;;;0.10;99.90;;;;;;5017987;28;20056;-81
2022/04/02 04:55:55;;;;;;;4.75;2.38;;;0.10;99.90;;;;;;5036129;28;20042;-81
2022/04/02 04:58:21;;;;;;;8.02;3.10;;;0.20;99.90;;;;;;5036526;28;20041;-81
2022/04/02 05:00:47;;;;;;;7.32;3.03;;;0.20;99.90;;;;;;5036007;28;20041;-81
2022/04/02 05:03:12;;;;;;;10.73;3.47;;;0.40;99.90;;;;;;5035416;28;20049;-80
2022/04/02 05:05:38;;;;;;;5.65;2.40;;;0.40;99.90;;;;;;5036281;28;20045;-81
2022/04/02 05:08:06;;;;;;;5.45;2.72;;;0.60;99.90;;;;;;5036763;28;20414;-81
2022/04/02 05:10:32;;;;;;;5.55;2.63;;;0.70;99.90;;;;;;5036045;28;20432;-81
2022/04/02 05:12:58;;;;;;;14.45;4.80;;;0.80;99.90;;;;;;5016688;28;20041;-81
2022/04/02 05:15:24;;;;;;;7.78;2.80;;;0.80;99.90;;;;;;5035771;28;20044;-81
2022/04/02 05:17:50;;;;;;;10.55;3.20;;;0.80;99.90;;;;;;5035907;28;20084;-81
2022/04/02 05:20:17;;;;;;;11.23;3.03;;;0.80;99.90;;;;;;5017744;28;20041;-81
2022/04/02 05:22:43;;;;;;;11.27;4.05;;;0.80;99.90;;;;;;5023361;28;20173;-81
2022/04/02 05:25:10;;;;;;;6.65;2.65;;;0.70;99.90;;;;;;4997885;28;20550;-81
2022/04/02 05:27:36;;;;;;;10.95;2.88;;;0.70;99.90;;;;;;5015178;28;20036;-81
2022/04/02 05:30:03;;;;;;;6.22;2.90;;;0.70;99.90;;;;;;5015676;28;20042;-81
2022/04/02 05:32:30;;;;;;;8.57;3.55;;;0.70;99.90;;;;;;4998555;28;20412;-83
2022/04/02 05:34:56;;;;;;;10.23;3.40;;;0.70;99.90;;;;;;5014919;28;20056;-81
2022/04/02 05:37:23;;;;;;;12.93;3.45;;;0.70;99.90;;;;;;5015479;28;20046;-81
2022/04/02 05:39:48;;;;;;;10.05;3.42;;;0.60;99.90;;;;;;5016988;28;20041;-81
2022/04/02 05:42:14;;;;;;;6.88;3.08;;;0.70;99.90;;;;;;5021501;28;20049;-81
2022/04/02 05:44:40;;;;;;;6.78;2.67;;;0.70;99.90;;;;;;5015562;28;20054;-80
2022/04/02 05:47:06;;;;;;;16.17;4.75;;;0.80;99.90;;;;;;4998242;28;20042;-81
2022/04/02 05:49:31;;;;;;;13.07;3.33;;;0.90;99.90;;;;;;5016415;28;20046;-81
2022/04/02 05:51:58;;;;;;;9.73;3.13;;;0.80;99.90;;;;;;5035309;28;20090;-81
2022/04/02 05:54:23;;;;;;;9.95;2.97;;;0.90;99.90;;;;;;5035529;28;20033;-81
2022/04/02 05:56:50;;;;;;;8.77;3.70;;;1.00;99.90;;;;;;5035299;28;20045;-81
2022/04/02 05:59:16;;;;;;;9.48;2.95;;;1.00;99.90;;;;;;5034703;28;20411;-81
2022/04/02 06:01:42;;;;;;;11.48;3.83;;;1.10;99.90;;;;;;5034568;28;20038;-81
2022/04/02 06:04:09;;;;;;;7.13;3.65;;;1.10;99.90;;;;;;5034902;28;20119;-81
2022/04/02 06:06:34;;;;;;;8.50;4.03;;;1.20;99.90;;;;;;5034488;28;20041;-81
2022/04/02 06:09:00;;;;;;;15.45;3.80;;;1.30;99.90;;;;;;5016678;28;20083;-81
2022/04/02 06:11:25;;;;;;;8.25;3.22;;;1.40;99.90;;;;;;5033506;28;20491;-81
2022/04/02 06:13:51;;;;;;;7.35;3.55;;;1.50;99.90;;;;;;4980314;28;20049;-81
2022/04/02 06:16:17;;;;;;;6.75;3.80;;;1.60;99.90;;;;;;5014387;28;20544;-81
2022/04/02 06:18:43;;;;;;;15.15;3.35;;;1.80;99.90;;;;;;5014494;28;20121;-82
2022/04/02 06:21:09;;;;;;;9.73;2.75;;;2.10;99.90;;;;;;5022410;28;20171;-81
2022/04/02 06:23:34;;;;;;;11.25;2.92;;;2.40;99.90;;;;;;5021866;28;20112;-81
2022/04/02 06:26:00;;;;;;;9.85;2.75;;;2.80;99.90;;;;;;5014525;28;20053;-82
2022/04/02 06:28:25;;;;;;;9.38;2.83;;;3.00;99.90;;;;;;4996852;28;20061;-82
2022/04/02 06:30:51;;;;;;;5.00;1.83;;;3.20;99.90;;;;;;5014378;28;20050;-82
2022/04/02 06:33:17;;;;;;;4.65;2.60;;;3.20;99.90;;;;;;5029070;28;20116;-82
2022/04/02 06:35:43;;;;;;;8.05;2.17;;;3.20;99.90;;;;;;5033859;28;20034;-82
2022/04/02 06:38:08;;;;;;;11.70;2.28;;;3.20;99.90;;;;;;4996974;28;20096;-82
2022/04/02 06:40:34;;;;;;;10.43;2.95;;;3.20;99.90;;;;;;5018530;28;20439;-82
2022/04/02 06:43:00;;;;;;;4.03;1.77;;;3.20;99.90;;;;;;5023770;28;20162;-82
2022/04/02 06:45:26;;;;;;;8.30;2.25;;;3.20;99.90;;;;;;5025400;28;20088;-82
2022/04/02 06:47:52;;;;;;;5.10;2.70;;;3.30;99.90;;;;;;5007422;28;20057;-82
2022/04/02 06:50:18;;;;;;;5.20;1.88;;;3.40;99.90;;;;;;5014423;28;20041;-82
2022/04/02 06:52:44;;;;;;;6.63;2.40;;;3.60;99.90;;;;;;5020333;28;20037;-82
2022/04/02 06:55:12;;;;;;;8.93;2.55;;;3.70;99.90;;;;;;5031245;28;20072;-82
2022/04/02 06:57:47;;;;;;;7.10;2.00;;;3.80;99.90;;;;;;5030224;28;20431;-82
2022/04/02 07:00:14;;;;;;;6.95;2.45;;;3.80;99.90;;;;;;5013445;28;20056;-82
2022/04/02 07:02:40;;;;;;;7.45;2.22;;;3.80;99.90;;;;;;5026082;28;20049;-82
2022/04/02 07:05:07;;;;;;;6.35;2.20;;;3.70;99.90;;;;;;5011933;28;20093;-82
2022/04/02 07:07:32;;;;;;;4.78;2.05;;;3.50;99.90;;;;;;5019661;28;20045;-82
2022/04/02 07:09:58;;;;;;;6.45;2.45;;;3.40;99.90;;;;;;5026518;28;20148;-82
2022/04/02 07:12:24;;;;;;;8.68;2.80;;;3.40;99.90;;;;;;5025322;28;20065;-83
2022/04/02 07:14:50;;;;;;;9.48;2.30;;;3.40;99.90;;;;;;5014943;28;20042;-82
2022/04/02 07:17:16;;;;;;;9.82;3.13;;;3.30;99.90;;;;;;5012310;28;20128;-82
2022/04/02 07:19:42;;;;;;;5.43;1.70;;;3.30;99.90;;;;;;5002396;28;20124;-83
2022/04/02 07:22:09;;;;;;;5.05;1.90;;;3.40;99.90;;;;;;5026482;28;20132;-82
2022/04/02 07:24:38;;;;;;;4.60;1.60;;;3.40;99.90;;;;;;5031491;28;20050;-83
2022/04/02 07:27:04;;;;;;;5.97;1.70;;;3.50;99.90;;;;;;5017654;28;20045;-83
2022/04/02 07:29:32;;;;;;;6.20;2.50;;;3.60;99.90;;;;;;5036646;28;20468;-83
2022/04/02 07:31:58;;;;;;;5.43;2.88;;;3.70;99.90;;;;;;5007048;28;20434;-83
2022/04/02 07:34:23;;;;;;;6.50;2.45;;;3.80;99.90;;;;;;5029739;28;20120;-83
2022/04/02 07:37:10;;;;;;;7.82;2.30;;;3.90;99.90;;;;;;5022813;28;20044;-83
2022/04/02 07:39:53;;;;;;;5.05;1.67;;;4.00;99.90;;;;;;5028470;28;20028;-83
2022/04/02 07:42:26;;;;;;;8.48;1.80;;;3.80;99.90;;;;;;5030527;28;20056;-83
2022/04/02 07:45:05;;;;;;;3.08;1.40;;;3.40;99.90;;;;;;5025523;28;20400;-83
2022/04/02 07:47:47;;;;;;;2.20;1.25;;;3.30;99.90;;;;;;5028212;28;20080;-83
2022/04/02 07:50:14;;;;;;;4.50;1.35;;;3.20;99.90;;;;;;5026827;28;20394;-82
2022/04/02 07:52:45;;;;;;;6.10;1.83;;;3.20;99.90;;;;;;4991806;28;20038;-83
2022/04/02 07:55:12;;;;;;;4.88;1.30;;;3.30;99.90;;;;;;5005098;28;20038;-83
2022/04/02 07:57:40;;;;;;;6.70;1.50;;;3.30;99.90;;;;;;5025127;28;20045;-83
2022/04/02 08:00:10;;;;;;;6.72;1.85;;;3.30;99.90;;;;;;5029151;28;20033;-83
2022/04/02 08:02:42;;;;;;;6.65;2.53;;;3.40;99.90;;;;;;5005146;28;20046;-83
2022/04/02 08:05:15;;;;;;;3.90;1.77;;;3.40;99.90;;;;;;5032995;28;20045;-83
2022/04/02 08:07:43;;;;;;;5.72;1.50;;;3.50;99.90;;;;;;5022498;28;20041;-83
2022/04/02 08:10:13;;;;;;;4.32;1.40;;;3.60;99.90;;;;;;5023720;28;20404;-84
2022/04/02 08:12:40;;;;;;;4.82;1.55;;;3.70;99.90;;;;;;4997346;28;20045;-84
2022/04/02 08:15:12;;;;;;;4.97;1.60;;;3.80;99.90;;;;;;5030555;28;20048;-83
2022/04/02 08:17:42;;;;;;;6.82;1.70;;;3.90;99.90;;;;;;5021639;28;20410;-84
2022/04/02 08:20:09;;;;;;;3.20;1.50;;;4.10;99.90;;;;;;5030907;28;20049;-83
2022/04/02 08:22:34;;;;;;;3.72;1.38;;;4.10;99.90;;;;;;5003320;28;20069;-83
2022/04/02 08:25:00;;;;;;;4.70;1.40;;;4.10;99.90;;;;;;5036457;28;20041;-84
2022/04/02 08:27:52;;;;;;;3.85;2.00;;;4.20;99.90;;;;;;5038990;28;20045;-85
2022/04/02 08:30:42;;;;;;;3.58;1.63;;;4.30;99.90;;;;;;5039039;28;20092;-85
2022/04/02 08:33:26;;;;;;;3.90;1.50;;;4.60;99.90;;;;;;5007804;28;20072;-85
2022/04/02 08:36:18;;;;;;;4.50;1.90;;;4.70;99.90;;;;;;5035984;28;20095;-84
2022/04/02 08:39:03;;;;;;;8.05;1.88;;;4.60;99.90;;;;;;5013163;28;20049;-84
2022/04/02 08:41:47;;;;;;;4.03;1.20;;;4.50;99.90;;;;;;5024728;28;20053;-84
2022/04/02 08:44:41;;;;;;;8.20;1.60;;;4.40;99.90;;;;;;5018998;28;20062;-84
2022/04/02 08:47:20;;;;;;;3.83;1.88;;;4.30;99.90;;;;;;5021885;28;20103;-84
2022/04/02 08:50:02;;;;;;;5.10;1.70;;;4.20;99.90;;;;;;5025947;28;20042;-84
2022/04/02 08:52:53;;;;;;;2.65;1.13;;;4.30;99.90;;;;;;5030971;28;20263;-84
2022/04/02 08:55:21;;;;;;;6.38;1.48;;;4.20;99.90;;;;;;5033551;28;20046;-85
2022/04/02 08:58:11;;;;;;;3.90;1.27;;;4.20;99.90;;;;;;5034187;28;20041;-84
2022/04/02 09:00:45;;;;;;;3.97;1.33;;;4.20;99.90;;;;;;5033461;28;20068;-85
2022/04/02 09:03:54;;;;;;;7.90;1.23;;;4.30;99.90;;;;;;5032823;28;20084;-84
2022/04/02 09:06:58;;;;;;;4.28;1.50;;;4.30;99.90;;;;;;5032294;28;20049;-85
2022/04/02 09:09:46;;;;;;;2.88;0.90;;;4.20;99.90;;;;;;5015850;28;20051;-84
2022/04/02 09:12:58;;;;;;;5.55;1.58;;;4.00;99.90;;;;;;5032863;28;20589;-84
2022/04/02 09:15:50;;;;;;;7.88;1.42;;;4.00;99.90;;;;;;5010605;28;20050;-83
2022/04/02 09:18:30;;;;;;;2.60;1.30;;;4.00;99.90;;;;;;5020331;28;20045;-84
2022/04/02 09:21:15;;;;;;;5.50;1.77;;;4.10;99.90;;;;;;5027882;28;20451;-82
2022/04/02 09:23:44;;;;;;;5.70;1.15;;;4.10;99.90;;;;;;5024322;28;20041;-84
2022/04/02 09:26:50;;;;;;;3.78;1.50;;;4.10;99.90;;;;;;5024184;28;20091;-84
2022/04/02 09:29:29;;;;;;;2.50;1.08;;;4.10;99.90;;;;;;5023291;28;20065;-82
2022/04/02 09:32:14;;;;;;;3.22;1.30;;;4.20;99.90;;;;;;5022436;28;20037;-83
2022/04/02 09:35:15;;;;;;;3.75;1.20;;;4.30;99.90;;;;;;5021172;28;20048;-85
2022/04/02 09:38:08;;;;;;;2.90;1.52;;;4.10;99.90;;;;;;5020591;28;20492;-83
2022/04/02 09:40:43;;;;;;;4.35;1.10;;;4.00;99.90;;;;;;5020265;28;20543;-83
2022/04/02 09:43:17;;;;;;;3.85;1.00;;;4.20;99.90;;;;;;5012864;28;20054;-86
2022/04/02 09:46:11;;;;;;;4.88;1.20;;;4.60;99.90;;;;;;5014037;28;20104;-85
2022/04/02 09:48:54;;;;;;;2.38;1.33;;;5.10;99.90;;;;;;4971485;28;20065;-84
2022/04/02 09:51:23;;;;;;;3.15;1.50;;;5.60;99.90;;;;;;5013050;28;20097;-83
2022/04/02 09:54:01;;;;;;;9.82;1.88;;;6.10;99.90;;;;;;5012449;28;20400;-83
2022/04/02 09:56:33;;;;;;;4.68;1.05;;;6.40;99.90;;;;;;5012788;28;20038;-82
2022/04/02 09:59:21;;;;;;;2.03;0.68;;;6.60;97.50;;;;;;5012386;28;20112;-82
2022/04/02 10:01:58;;;;;;;1.85;0.82;;;6.50;91.40;;;;;;5026088;28;20051;-82
2022/04/02 10:04:23;;;;;;;;;;;6.20;64.50;;;;;;5032153;28;20530;-82
2022/04/02 10:06:55;;;;;;;5.73;1.30;;;5.70;84.70;;;;;;5031995;28;19980;-82
2022/04/02 10:09:22;;;;;;;2.53;1.00;;;5.60;91.00;;;;;;5013603;28;20049;-81
2022/04/02 10:11:56;;;;;;;2.75;0.93;;;5.30;97.90;;;;;;5030764;28;20461;-81
2022/04/02 10:14:28;;;;;;;4.57;1.45;;;4.90;99.90;;;;;;5031023;28;20041;-82
2022/04/02 10:17:01;;;;;;;5.47;1.40;;;4.60;99.90;;;;;;5031616;28;20056;-81
2022/04/02 10:19:28;;;;;;;4.40;1.58;;;5.00;99.90;;;;;;5017509;28;20053;-81
2022/04/02 10:21:57;;;;;;;7.35;1.80;;;5.50;99.90;;;;;;5020119;28;20388;-81
2022/04/02 10:24:24;;;;;;;2.55;1.05;;;6.00;99.90;;;;;;5010460;28;20042;-84
2022/04/02 10:26:55;;;;;;;3.10;1.33;;;6.50;93.20;;;;;;5023117;28;20095;-84
2022/04/02 10:29:39;;;;;;;5.90;1.48;;;6.20;93.10;;;;;;5017254;28;20058;-81
2022/04/02 10:32:41;;;;;;;3.45;1.13;;;6.20;81.70;;;;;;5015140;28;20046;-82
2022/04/02 10:35:12;;;;;;;2.20;0.95;;;6.20;71.80;;;;;;4996703;28;20046;-81
2022/04/02 10:37:50;;;;;;;3.28;1.30;;;6.40;79.10;;;;;;5034424;28;20057;-82
2022/04/02 10:40:21;;;;;;;3.65;1.00;;;6.40;74.10;;;;;;5033818;28;20046;-82
2022/04/02 10:42:55;;;;;;;1.67;0.88;;;6.70;82.70;;;;;;5033768;28;20111;-82
2022/04/02 10:45:22;;;;;;;3.33;0.80;;;6.50;81.00;;;;;;5032835;28;20459;-82
2022/04/02 10:47:54;;;;;;;3.35;1.33;;;6.00;84.50;;;;;;5034195;28;20095;-82
2022/04/02 10:50:22;;;;;;;3.22;1.00;;;5.50;90.30;;;;;;5034029;28;20043;-81
2022/04/02 10:52:49;;;;;;;3.45;1.20;;;5.20;92.70;;;;;;5034519;28;20049;-81
2022/04/02 10:55:21;;;;;;;11.80;1.30;;;4.70;91.80;;;;;;5033983;28;20041;-82
2022/04/02 10:57:47;;;;;;;12.75;1.67;;;4.30;96.50;;;;;;5034062;28;20076;-82
2022/04/02 11:00:13;;;;;;;3.58;2.17;;;4.20;94.40;;;;;;5033697;28;20403;-81
2022/04/02 11:02:49;;;;;;;2.35;1.10;;;4.20;99.00;;;;;;5032882;28;20120;-82
2022/04/02 11:05:16;;;;;;;6.15;1.73;;;4.40;98.90;;;;;;5034223;28;20042;-82
2022/04/02 11:07:49;;;;;;;4.40;1.52;;;4.50;98.50;;;;;;5034332;28;20103;-82
2022/04/02 11:10:17;;;;;;;5.53;1.98;;;4.70;99.90;;;;;;5034254;28;20053;-82
2022/04/02 11:12:44;;;;;;;3.35;1.15;;;4.90;97.00;;;;;;5034153;28;20121;-82
2022/04/02 11:15:17;;;;;;;3.72;1.27;;;5.10;97.00;;;;;;5034031;28;20084;-81
2022/04/02 11:17:53;;;;;;;3.88;1.40;;;5.00;95.70;;;;;;5033946;28;20096;-81
2022/04/02 11:20:23;;;;;;;2.60;1.25;;;5.00;95.50;;;;;;5033824;28;20121;-81
2022/04/02 11:22:52;;;;;;;4.70;1.98;;;4.80;96.40;;;;;;5034230;28;20084;-82
2022/04/02 11:25:31;;;;;;;2.88;1.27;;;4.90;97.70;;;;;;5033917;28;20041;-82
2022/04/02 11:28:00;;;;;;;2.17;0.93;;;5.10;92.10;;;;;;5033985;28;20091;-82
2022/04/02 11:30:29;;;;;;;3.17;0.90;;;5.70;93.10;;;;;;5016260;28;20049;-82
2022/04/02 11:33:04;;;;;;;2.70;0.95;;;6.10;86.40;;;;;;5033698;28;20057;-83
2022/04/02 11:35:31;;;;;;;4.63;1.40;;;6.20;75.80;;;;;;5033952;28;20372;-82
2022/04/02 11:38:20;;;;;;;5.60;1.10;;;6.30;67.70;;;;;;5034047;28;20072;-82
2022/04/02 11:41:22;;;;;;;6.88;1.20;;;5.90;62.70;;;;;;5033817;28;20365;-82
2022/04/02 11:43:51;;;;;;;2.75;1.23;;;6.10;76.70;;;;;;5033563;28;20049;-82
2022/04/02 11:46:20;;;;;;;2.60;1.10;;;6.10;74.30;;;;;;5033562;28;20050;-82
2022/04/02 11:49:09;;;;;;;4.07;1.35;;;6.10;77.50;;;;;;5033794;28;20085;-82
2022/04/02 11:51:35;;;;;;;2.70;1.10;;;6.80;92.50;;;;;;5033726;28;20038;-82
2022/04/02 11:54:08;;;;;;;7.80;1.30;;;6.80;84.30;;;;;;5033430;28;20121;-82
2022/04/02 11:56:35;;;;;;;2.13;1.20;;;6.80;89.80;;;;;;4999394;28;20407;-82
2022/04/02 11:59:08;;;;;;;2.72;1.10;;;6.80;80.00;;;;;;5033631;28;20124;-82
2022/04/02 12:01:41;;;;;;;3.72;1.45;;;6.10;73.60;;;;;;5033756;28;20054;-81
2022/04/02 12:04:14;;;;;;;1.23;0.60;;;5.70;67.10;;;;;;5033593;28;20425;-82
2022/04/02 12:06:42;;;;;;;3.90;1.63;;;5.60;58.00;;;;;;5033628;28;20053;-82
2022/04/02 12:09:17;;;;;;;4.20;0.95;;;5.70;63.70;;;;;;5033554;28;20049;-82
2022/04/02 12:11:52;;;;;;;4.93;1.20;;;5.90;50.90;;;;;;5034269;28;20045;-82
2022/04/02 12:14:38;;;;;;;3.45;1.25;;;6.60;53.40;;;;;;5037231;28;20873;-82
2022/04/02 12:17:06;;;;;;;4.93;0.98;;;7.30;46.80;;;;;;5020867;28;20377;-82
2022/04/02 12:19:55;;;;;;;4.95;0.82;;;7.20;39.70;;;;;;5037360;28;20454;-82
2022/04/02 12:22:34;;;;;;;1.67;0.73;;;7.40;40.30;;;;;;5037122;28;20124;-82
2022/04/02 12:25:13;;;;;;;5.20;0.95;;;7.60;39.20;;;;;;5036727;28;20503;-82
2022/04/02 12:27:39;;;;;;;3.13;1.10;;;7.80;32.50;;;;;;5037127;28;20392;-83
2022/04/02 12:30:10;;;;;;;3.38;0.95;;;8.20;36.80;;;;;;5037319;28;20050;-82
2022/04/02 12:32:44;;;;;;;2.10;0.90;;;8.00;28.20;;;;;;5037116;28;20049;-82
2022/04/02 12:35:28;;;;;;;2.00;0.73;;;8.10;37.60;;;;;;5036840;28;20060;-82
2022/04/02 12:37:56;;;;;;;2.83;1.00;;;7.30;27.40;;;;;;5019372;28;20055;-82
2022/04/02 12:40:23;;;;;;;2.03;0.75;;;7.40;36.60;;;;;;5036629;28;20128;-82
2022/04/02 12:42:51;;;;;;;2.35;1.05;;;7.60;28.80;;;;;;5036459;28;20053;-82
2022/04/02 12:45:19;;;;;;;4.28;1.50;;;7.40;30.90;;;;;;5036698;28;20049;-82
2022/04/02 12:48:01;;;;;;;4.13;0.93;;;7.60;37.20;;;;;;5036937;28;20041;-83
2022/04/02 12:50:32;;;;;;;2.90;1.48;;;8.20;38.70;;;;;;5036605;28;20184;-82
2022/04/02 12:52:59;;;;;;;2.95;1.35;;;8.10;38.30;;;;;;5036666;28;20088;-81
2022/04/02 12:55:27;;;;;;;3.25;1.10;;;7.30;43.20;;;;;;5036517;28;20408;-82
2022/04/02 12:58:10;;;;;;;4.32;1.40;;;7.40;52.10;;;;;;5036441;28;20086;-82
2022/04/02 13:00:38;;;;;;;2.03;0.77;;;6.90;51.50;;;;;;5036525;28;20044;-81
2022/04/02 13:03:05;;;;;;;5.60;1.17;;;6.60;40.60;;;;;;5036456;28;20037;-82
2022/04/02 13:05:46;;;;;;;1.83;0.77;;;6.30;44.60;;;;;;5036056;28;20515;-82
2022/04/02 13:08:23;;;;;;;5.65;0.90;;;6.20;45.70;;;;;;5036538;28;20045;-82
2022/04/02 13:10:54;;;;;;;1.98;0.88;;;6.30;38.90;;;;;;5018136;28;20049;-81